createdAt,value
2019-03-23T00:00:18.546Z,89.42
2019-03-23T00:01:18.500Z,90.20
2019-03-23T00:02:18.502Z,90.00
2019-03-23T00:03:18.506Z,90.20
2019-03-23T00:04:18.475Z,90.03
2019-03-23T00:05:18.458Z,90.00
2019-03-23T00:06:18.446Z,89.83
2019-03-23T00:07:18.435Z,90.03
2019-03-23T00:08:18.595Z,90.24
2019-03-23T00:09:18.409Z,89.94
2019-03-23T00:10:18.450Z,90.45
2019-03-23T00:11:18.387Z,89.83
2019-03-23T00:12:18.382Z,90.39
2019-03-23T00:13:18.363Z,91.21
2019-03-23T00:14:18.378Z,91.00
2019-03-23T00:15:18.345Z,90.69
2019-03-23T00:16:18.365Z,90.90
2019-03-23T00:17:18.322Z,90.96
2019-03-23T00:18:18.315Z,90.75
2019-03-23T00:19:18.310Z,90.24
2019-03-23T00:20:18.309Z,89.73
2019-03-23T00:21:18.283Z,90.03
2019-03-23T00:22:18.263Z,90.24
2019-03-23T00:23:18.257Z,89.73
2019-03-23T00:24:18.237Z,90.24
2019-03-23T00:25:18.281Z,90.03
2019-03-23T00:26:18.213Z,90.24
2019-03-23T00:27:18.211Z,90.24
2019-03-23T00:28:18.193Z,89.73
2019-03-23T00:29:18.243Z,89.62
2019-03-23T00:30:18.185Z,89.73
2019-03-23T00:31:18.173Z,89.83
2019-03-23T00:32:18.171Z,90.03
2019-03-23T00:33:18.134Z,90.14
2019-03-23T00:34:18.150Z,89.83
2019-03-23T00:35:18.140Z,89.31
2019-03-23T00:36:18.106Z,89.22
2019-03-23T00:37:20.106Z,88.90
2019-03-23T00:38:18.081Z,88.66
2019-03-23T00:39:18.067Z,88.80
2019-03-23T00:40:18.092Z,89.52
2019-03-23T00:41:18.042Z,89.31
2019-03-23T00:42:18.039Z,89.22
2019-03-23T00:43:18.052Z,88.90
2019-03-23T00:44:18.014Z,89.42
2019-03-23T00:45:18.032Z,89.52
2019-03-23T00:46:17.997Z,89.11
2019-03-23T00:47:18.021Z,89.94
2019-03-23T00:48:17.966Z,89.83
2019-03-23T00:49:17.957Z,89.22
2019-03-23T00:50:17.946Z,89.31
2019-03-23T00:51:17.934Z,89.42
2019-03-23T00:52:17.943Z,89.15
2019-03-23T00:53:17.914Z,90.08
2019-03-23T00:54:17.917Z,89.77
2019-03-23T00:55:17.928Z,90.08
2019-03-23T00:56:17.885Z,90.28
2019-03-23T00:57:17.915Z,90.18
2019-03-23T00:58:17.875Z,89.97
2019-03-23T00:59:17.837Z,90.18
2019-03-23T01:00:17.824Z,90.59
2019-03-23T01:01:17.836Z,89.77
2019-03-23T01:02:17.822Z,90.14
2019-03-23T01:03:17.795Z,90.18
2019-03-23T01:04:17.834Z,90.08
2019-03-23T01:05:17.767Z,90.18
2019-03-23T01:06:17.780Z,90.18
2019-03-23T01:07:17.747Z,89.77
2019-03-23T01:08:17.762Z,90.18
2019-03-23T01:09:17.770Z,90.08
2019-03-23T01:10:17.723Z,89.87
2019-03-23T01:11:17.698Z,89.97
2019-03-23T01:12:17.687Z,90.08
2019-03-23T01:13:17.681Z,90.28
2019-03-23T01:14:17.690Z,90.18
2019-03-23T01:15:17.680Z,90.33
2019-03-23T01:16:17.646Z,90.08
2019-03-23T01:17:17.636Z,90.12
2019-03-23T01:18:17.624Z,90.33
2019-03-23T01:19:17.624Z,90.43
2019-03-23T01:20:17.632Z,90.73
2019-03-23T01:21:17.587Z,90.43
2019-03-23T01:22:17.580Z,90.43
2019-03-23T01:23:17.569Z,90.53
2019-03-23T01:24:17.552Z,90.43
2019-03-23T01:25:17.551Z,90.43
2019-03-23T01:26:17.573Z,90.69
2019-03-23T01:27:17.528Z,90.28
2019-03-23T01:28:17.511Z,89.97
2019-03-23T01:29:17.507Z,89.87
2019-03-23T01:30:17.547Z,90.18
2019-03-23T01:31:17.485Z,90.28
2019-03-23T01:32:17.470Z,89.25
2019-03-23T01:33:17.454Z,89.46
2019-03-23T01:34:17.449Z,89.05
2019-03-23T01:35:17.461Z,90.18
2019-03-23T01:36:17.421Z,89.77
2019-03-23T01:37:17.419Z,90.28
2019-03-23T01:38:17.414Z,90.64
2019-03-23T01:39:17.394Z,90.53
2019-03-23T01:40:17.413Z,91.15
2019-03-23T01:41:17.370Z,90.73
2019-03-23T01:42:17.357Z,91.15
2019-03-23T01:43:17.349Z,91.66
2019-03-23T01:44:17.349Z,90.22
2019-03-23T01:45:17.328Z,90.08
2019-03-23T01:46:17.336Z,90.22
2019-03-23T01:47:17.302Z,89.91
2019-03-23T01:48:17.292Z,90.22
2019-03-23T01:49:17.279Z,89.87
2019-03-23T01:50:17.281Z,90.18
2019-03-23T01:51:17.289Z,90.18
2019-03-23T01:52:17.264Z,89.87
2019-03-23T01:53:17.281Z,89.97
2019-03-23T01:54:17.248Z,90.22
2019-03-23T01:55:17.232Z,90.33
2019-03-23T01:56:17.198Z,90.08
2019-03-23T01:57:17.221Z,89.87
2019-03-23T01:58:17.176Z,90.08
2019-03-23T01:59:17.181Z,90.12
2019-03-23T02:00:17.181Z,89.97
2019-03-23T02:01:17.302Z,89.71
2019-03-23T02:02:17.139Z,89.91
2019-03-23T02:03:17.162Z,90.47
2019-03-23T02:04:17.110Z,91.40
2019-03-23T02:05:17.097Z,91.15
2019-03-23T02:06:17.111Z,91.50
2019-03-23T02:07:17.112Z,91.19
2019-03-23T02:08:17.104Z,91.25
2019-03-23T02:09:17.076Z,91.36
2019-03-23T02:10:17.052Z,90.37
2019-03-23T02:11:17.033Z,91.46
2019-03-23T02:12:17.042Z,90.88
2019-03-23T02:13:17.018Z,91.19
2019-03-23T02:14:17.025Z,91.09
2019-03-23T02:15:16.995Z,90.88
2019-03-23T02:16:16.983Z,91.19
2019-03-23T02:17:16.992Z,91.19
2019-03-23T02:18:16.989Z,91.09
2019-03-23T02:19:16.947Z,91.19
2019-03-23T02:20:16.939Z,91.50
2019-03-23T02:21:16.945Z,91.81
2019-03-23T02:22:16.938Z,91.91
2019-03-23T02:23:16.917Z,91.09
2019-03-23T02:24:16.915Z,90.99
2019-03-23T02:25:16.882Z,91.30
2019-03-23T02:26:16.888Z,90.88
2019-03-23T02:27:16.859Z,90.88
2019-03-23T02:28:16.848Z,91.09
2019-03-23T02:29:16.837Z,90.99
2019-03-23T02:30:16.851Z,90.33
2019-03-23T02:31:16.811Z,90.26
2019-03-23T02:32:16.804Z,89.75
2019-03-23T02:33:16.788Z,90.06
2019-03-23T02:34:16.805Z,90.26
2019-03-23T02:35:16.788Z,90.06
2019-03-23T02:36:16.765Z,90.26
2019-03-23T02:37:27.146Z,90.61
2019-03-23T02:38:17.734Z,91.34
2019-03-23T02:39:16.736Z,90.99
2019-03-23T02:40:16.733Z,91.13
2019-03-23T02:41:16.702Z,91.34
2019-03-23T02:42:16.691Z,91.34
2019-03-23T02:43:16.701Z,91.96
2019-03-23T02:44:16.664Z,92.06
2019-03-23T02:45:16.680Z,92.10
2019-03-23T02:46:16.649Z,92.21
2019-03-23T02:47:16.652Z,92.16
2019-03-23T02:48:16.628Z,92.37
2019-03-23T02:49:16.622Z,92.06
2019-03-23T02:50:16.632Z,92.06
2019-03-23T02:51:16.626Z,91.75
2019-03-23T02:52:16.583Z,92.06
2019-03-23T02:53:16.578Z,91.58
2019-03-23T02:54:16.562Z,91.85
2019-03-23T02:55:16.545Z,92.10
2019-03-23T02:56:16.582Z,92.10
2019-03-23T02:57:16.524Z,92.21
2019-03-23T02:58:16.515Z,92.21
2019-03-23T02:59:16.503Z,92.72
2019-03-23T03:00:16.525Z,92.82
2019-03-23T03:01:16.480Z,92.51
2019-03-23T03:02:16.513Z,92.10
2019-03-23T03:03:16.496Z,92.27
2019-03-23T03:04:16.454Z,92.06
2019-03-23T03:05:16.449Z,92.31
2019-03-23T03:06:16.426Z,92.06
2019-03-23T03:07:16.473Z,91.85
2019-03-23T03:08:16.418Z,92.00
2019-03-23T03:09:16.400Z,92.00
2019-03-23T03:10:16.415Z,92.21
2019-03-23T03:11:16.397Z,92.82
2019-03-23T03:12:16.360Z,93.24
2019-03-23T03:13:16.408Z,93.34
2019-03-23T03:14:16.343Z,93.49
2019-03-23T03:15:16.334Z,93.54
2019-03-23T03:16:16.329Z,93.59
2019-03-23T03:17:16.319Z,93.49
2019-03-23T03:18:16.301Z,93.69
2019-03-23T03:19:16.571Z,93.69
2019-03-23T03:20:16.279Z,93.90
2019-03-23T03:21:16.262Z,94.10
2019-03-23T03:22:16.275Z,94.27
2019-03-23T03:23:16.244Z,93.75
2019-03-23T03:24:16.281Z,93.03
2019-03-23T03:25:16.221Z,93.59
2019-03-23T03:26:16.211Z,93.79
2019-03-23T03:27:16.227Z,94.35
2019-03-23T03:28:16.208Z,94.46
2019-03-23T03:29:16.176Z,94.87
2019-03-23T03:30:16.185Z,95.39
2019-03-23T03:31:16.151Z,95.07
2019-03-23T03:32:16.190Z,95.18
2019-03-23T03:33:16.133Z,95.70
2019-03-23T03:34:16.124Z,95.28
2019-03-23T03:35:16.113Z,95.39
2019-03-23T03:36:16.128Z,95.70
2019-03-23T03:37:16.094Z,95.49
2019-03-23T03:38:16.140Z,95.65
2019-03-23T03:39:16.077Z,95.39
2019-03-23T03:40:16.055Z,95.70
2019-03-23T03:41:16.048Z,96.21
2019-03-23T03:42:16.039Z,96.01
2019-03-23T03:43:16.063Z,96.31
2019-03-23T03:44:16.020Z,96.21
2019-03-23T03:45:16.001Z,96.21
2019-03-23T03:46:15.987Z,96.01
2019-03-23T03:47:15.980Z,95.80
2019-03-23T03:48:15.992Z,96.01
2019-03-23T03:49:15.962Z,96.31
2019-03-23T03:50:15.948Z,96.94
2019-03-23T03:51:15.949Z,96.47
2019-03-23T03:52:15.931Z,96.98
2019-03-23T03:53:15.949Z,96.67
2019-03-23T03:54:15.914Z,96.56
2019-03-23T03:55:15.912Z,97.08
2019-03-23T03:56:15.886Z,97.14
2019-03-23T03:57:15.879Z,96.42
2019-03-23T03:58:15.896Z,96.31
2019-03-23T03:59:15.876Z,96.01
2019-03-23T04:00:15.843Z,96.11
2019-03-23T04:01:15.855Z,96.11
2019-03-23T04:02:15.820Z,96.11
2019-03-23T04:03:15.824Z,95.90
2019-03-23T04:04:15.824Z,96.11
2019-03-23T04:05:15.836Z,95.80
2019-03-23T04:06:15.800Z,96.11
2019-03-23T04:07:15.789Z,96.27
2019-03-23T04:08:15.762Z,95.86
2019-03-23T04:09:15.750Z,95.49
2019-03-23T04:10:15.751Z,94.25
2019-03-23T04:11:15.758Z,94.87
2019-03-23T04:12:15.712Z,94.97
2019-03-23T04:13:15.714Z,95.39
2019-03-23T04:14:15.694Z,95.90
2019-03-23T04:15:15.681Z,96.21
2019-03-23T04:16:15.700Z,96.01
2019-03-23T04:17:15.657Z,94.87
2019-03-23T04:18:15.652Z,95.39
2019-03-23T04:19:15.642Z,96.21
2019-03-23T04:20:15.636Z,95.59
2019-03-23T04:21:15.672Z,94.77
2019-03-23T04:22:15.614Z,95.59
2019-03-23T04:23:15.605Z,95.70
2019-03-23T04:24:15.583Z,95.39
2019-03-23T04:25:15.584Z,95.90
2019-03-23T04:26:15.568Z,96.11
2019-03-23T04:27:15.600Z,96.31
2019-03-23T04:28:15.542Z,95.70
2019-03-23T04:29:15.547Z,96.11
2019-03-23T04:30:15.519Z,96.21
2019-03-23T04:31:15.577Z,96.42
2019-03-23T04:32:15.519Z,96.42
2019-03-23T04:33:15.505Z,96.31
2019-03-23T04:34:15.482Z,94.87
2019-03-23T04:35:15.466Z,94.77
2019-03-23T04:36:15.456Z,95.18
2019-03-23T04:37:15.485Z,94.87
2019-03-23T04:38:22.724Z,95.49
2019-03-23T04:39:16.421Z,95.34
2019-03-23T04:40:15.459Z,95.24
2019-03-23T04:41:15.408Z,95.45
2019-03-23T04:42:15.411Z,95.24
2019-03-23T04:43:15.384Z,94.72
2019-03-23T04:44:15.370Z,94.57
2019-03-23T04:45:15.366Z,94.37
2019-03-23T04:46:15.353Z,93.75
2019-03-23T04:47:15.371Z,93.75
2019-03-23T04:48:15.325Z,93.65
2019-03-23T04:49:15.322Z,92.82
2019-03-23T04:50:15.302Z,93.54
2019-03-23T04:51:15.300Z,93.44
2019-03-23T04:52:15.288Z,93.24
2019-03-23T04:53:15.303Z,92.41
2019-03-23T04:54:15.256Z,92.31
2019-03-23T04:55:15.257Z,92.10
2019-03-23T04:56:15.249Z,92.41
2019-03-23T04:57:15.252Z,92.72
2019-03-23T04:58:15.263Z,92.93
2019-03-23T04:59:15.209Z,92.72
2019-03-23T05:00:15.190Z,92.76
2019-03-23T05:01:15.181Z,93.07
2019-03-23T05:02:15.175Z,93.84
2019-03-23T05:03:15.186Z,94.71
2019-03-23T05:04:15.158Z,95.43
2019-03-23T05:05:15.145Z,95.64
2019-03-23T05:06:15.153Z,95.84
2019-03-23T05:07:15.123Z,96.21
2019-03-23T05:08:15.130Z,95.32
2019-03-23T05:09:15.093Z,95.53
2019-03-23T05:10:15.086Z,95.95
2019-03-23T05:11:15.113Z,95.84
2019-03-23T05:12:15.060Z,95.53
2019-03-23T05:13:15.074Z,96.05
2019-03-23T05:14:15.046Z,95.95
2019-03-23T05:15:15.037Z,96.15
2019-03-23T05:16:15.025Z,96.47
2019-03-23T05:17:15.029Z,96.94
2019-03-23T05:18:15.011Z,97.04
2019-03-23T05:19:15.007Z,96.21
2019-03-23T05:20:14.977Z,96.11
2019-03-23T05:21:14.974Z,96.01
2019-03-23T05:22:14.959Z,96.21
2019-03-23T05:23:14.941Z,96.42
2019-03-23T05:24:14.950Z,95.76
2019-03-23T05:25:14.924Z,95.70
2019-03-23T05:26:14.920Z,94.87
2019-03-23T05:27:14.897Z,95.39
2019-03-23T05:28:14.890Z,95.18
2019-03-23T05:29:14.897Z,94.97
2019-03-23T05:30:14.897Z,95.49
2019-03-23T05:31:14.855Z,95.39
2019-03-23T05:32:14.847Z,95.39
2019-03-23T05:33:14.847Z,95.39
2019-03-23T05:34:14.874Z,94.67
2019-03-23T05:35:14.822Z,94.97
2019-03-23T05:36:15.401Z,95.07
2019-03-23T05:37:14.787Z,95.39
2019-03-23T05:38:14.793Z,95.39
2019-03-23T05:39:14.770Z,95.39
2019-03-23T05:40:14.806Z,95.39
2019-03-23T05:41:14.745Z,94.97
2019-03-23T05:42:14.759Z,94.97
2019-03-23T05:43:14.719Z,95.24
2019-03-23T05:44:14.713Z,94.93
2019-03-23T05:45:14.727Z,94.10
2019-03-23T05:46:14.710Z,94.77
2019-03-23T05:47:14.698Z,94.04
2019-03-23T05:48:14.665Z,94.52
2019-03-23T05:49:14.681Z,94.42
2019-03-23T05:50:14.643Z,94.42
2019-03-23T05:51:14.660Z,94.31
2019-03-23T05:52:14.644Z,93.79
2019-03-23T05:53:14.611Z,94.31
2019-03-23T05:54:14.605Z,94.62
2019-03-23T05:55:14.608Z,94.42
2019-03-23T05:56:14.625Z,94.17
2019-03-23T05:57:14.591Z,93.96
2019-03-23T05:58:14.572Z,93.34
2019-03-23T05:59:14.577Z,93.24
2019-03-23T06:00:14.538Z,92.51
2019-03-23T06:01:14.526Z,92.51
2019-03-23T06:02:14.542Z,92.41
2019-03-23T06:03:14.510Z,92.51
2019-03-23T06:04:14.501Z,92.41
2019-03-23T06:05:14.488Z,92.51
2019-03-23T06:06:14.473Z,92.21
2019-03-23T06:07:14.516Z,92.06
2019-03-23T06:08:14.454Z,91.96
2019-03-23T06:09:14.468Z,90.82
2019-03-23T06:10:14.444Z,90.92
2019-03-23T06:11:14.420Z,91.13
2019-03-23T06:12:14.415Z,91.24
2019-03-23T06:13:14.440Z,91.34
2019-03-23T06:14:14.432Z,90.51
2019-03-23T06:15:14.379Z,90.31
2019-03-23T06:16:14.412Z,90.00
2019-03-23T06:17:14.362Z,90.31
2019-03-23T06:18:14.373Z,90.41
2019-03-23T06:19:14.337Z,90.20
2019-03-23T06:20:14.341Z,90.00
2019-03-23T06:21:14.317Z,90.41
2019-03-23T06:22:14.304Z,89.95
2019-03-23T06:23:14.334Z,90.20
2019-03-23T06:24:14.290Z,90.00
2019-03-23T06:25:14.277Z,90.04
2019-03-23T06:26:14.279Z,90.31
2019-03-23T06:27:14.275Z,90.82
2019-03-23T06:28:14.260Z,90.31
2019-03-23T06:29:14.257Z,90.82
2019-03-23T06:30:14.244Z,91.44
2019-03-23T06:31:14.207Z,90.72
2019-03-23T06:32:14.214Z,90.20
2019-03-23T06:33:14.220Z,90.31
2019-03-23T06:34:14.178Z,90.31
2019-03-23T06:35:14.175Z,90.00
2019-03-23T06:36:14.153Z,90.10
2019-03-23T06:37:14.142Z,90.61
2019-03-23T06:38:16.258Z,90.61
2019-03-23T06:39:14.122Z,89.95
2019-03-23T06:40:14.109Z,89.95
2019-03-23T06:41:14.097Z,89.85
2019-03-23T06:42:14.089Z,89.75
2019-03-23T06:43:14.114Z,90.26
2019-03-23T06:44:14.089Z,90.26
2019-03-23T06:45:14.062Z,90.47
2019-03-23T06:46:14.043Z,89.95
2019-03-23T06:47:14.067Z,89.75
2019-03-23T06:48:14.022Z,89.95
2019-03-23T06:49:14.037Z,90.26
2019-03-23T06:50:14.005Z,90.26
2019-03-23T06:51:14.036Z,90.16
2019-03-23T06:52:13.983Z,90.06
2019-03-23T06:53:14.017Z,90.16
2019-03-23T06:54:13.981Z,90.16
2019-03-23T06:55:13.956Z,89.91
2019-03-23T06:56:13.954Z,90.26
2019-03-23T06:57:13.940Z,90.22
2019-03-23T06:58:13.918Z,90.22
2019-03-23T06:59:13.930Z,89.40
2019-03-23T07:00:13.918Z,89.36
2019-03-23T07:01:13.902Z,89.19
2019-03-23T07:02:13.866Z,89.56
2019-03-23T07:03:13.860Z,89.29
2019-03-23T07:04:13.844Z,89.56
2019-03-23T07:05:13.879Z,89.56
2019-03-23T07:06:13.828Z,89.25
2019-03-23T07:07:13.811Z,89.36
2019-03-23T07:08:13.804Z,89.46
2019-03-23T07:09:16.432Z,89.36
2019-03-23T07:10:13.788Z,88.95
2019-03-23T07:11:13.792Z,88.84
2019-03-23T07:12:13.764Z,89.46
2019-03-23T07:13:13.772Z,88.90
2019-03-23T07:14:13.772Z,89.01
2019-03-23T07:15:20.078Z,89.22
2019-03-23T07:16:14.740Z,89.31
2019-03-23T07:17:13.694Z,89.31
2019-03-23T07:18:13.696Z,89.31
2019-03-23T07:19:13.677Z,88.90
2019-03-23T07:20:13.664Z,88.96
2019-03-23T07:21:13.683Z,89.01
2019-03-23T07:22:13.641Z,88.70
2019-03-23T07:23:13.630Z,89.17
2019-03-23T07:24:13.616Z,88.66
2019-03-23T07:25:13.636Z,89.17
2019-03-23T07:26:13.606Z,89.17
2019-03-23T07:27:13.609Z,89.28
2019-03-23T07:28:13.568Z,89.23
2019-03-23T07:29:13.562Z,88.51
2019-03-23T07:30:13.564Z,88.76
2019-03-23T07:31:13.544Z,88.76
2019-03-23T07:32:13.566Z,89.13
2019-03-23T07:33:13.512Z,88.00
2019-03-23T07:34:13.499Z,88.82
2019-03-23T07:35:13.490Z,88.62
2019-03-23T07:36:13.527Z,88.41
2019-03-23T07:37:13.467Z,88.82
2019-03-23T07:38:13.491Z,88.82
2019-03-23T07:39:13.477Z,88.82
2019-03-23T07:40:13.434Z,88.78
2019-03-23T07:41:13.425Z,88.68
2019-03-23T07:42:13.466Z,88.27
2019-03-23T07:43:13.429Z,88.57
2019-03-23T07:44:13.392Z,88.64
2019-03-23T07:45:13.376Z,87.82
2019-03-23T07:46:13.377Z,87.85
2019-03-23T07:47:13.359Z,87.71
2019-03-23T07:48:13.369Z,87.71
2019-03-23T07:49:13.334Z,87.88
2019-03-23T07:50:13.337Z,87.57
2019-03-23T07:51:13.315Z,87.57
2019-03-23T07:52:13.308Z,87.37
2019-03-23T07:53:13.310Z,87.26
2019-03-23T07:54:13.303Z,86.85
2019-03-23T07:55:13.274Z,86.50
2019-03-23T07:56:13.260Z,86.30
2019-03-23T07:57:13.245Z,86.50
2019-03-23T07:58:13.263Z,85.85
2019-03-23T07:59:13.248Z,85.95
2019-03-23T08:00:13.232Z,85.03
2019-03-23T08:01:13.205Z,85.64
2019-03-23T08:02:13.192Z,85.85
2019-03-23T08:03:13.207Z,85.03
2019-03-23T08:04:13.203Z,84.82
2019-03-23T08:05:13.162Z,84.06
2019-03-23T08:06:13.144Z,84.17
2019-03-23T08:07:13.142Z,83.55
2019-03-23T08:08:13.122Z,84.23
2019-03-23T08:09:20.457Z,84.03
2019-03-23T08:10:14.124Z,83.31
2019-03-23T08:11:13.094Z,83.41
2019-03-23T08:12:13.079Z,83.47
2019-03-23T08:13:13.096Z,83.58
2019-03-23T08:14:13.086Z,82.86
2019-03-23T08:15:13.070Z,82.55
2019-03-23T08:16:13.033Z,82.76
2019-03-23T08:17:13.033Z,82.21
2019-03-23T08:18:13.022Z,82.51
2019-03-23T08:19:13.005Z,81.96
2019-03-23T08:20:13.011Z,81.79
2019-03-23T08:21:12.979Z,81.45
2019-03-23T08:22:12.974Z,82.17
2019-03-23T08:23:12.956Z,81.24
2019-03-23T08:24:12.964Z,81.24
2019-03-23T08:25:13.028Z,80.60
2019-03-23T08:26:12.927Z,80.49
2019-03-23T08:27:12.910Z,80.08
2019-03-23T08:28:12.904Z,80.46
2019-03-23T08:29:12.900Z,80.66
2019-03-23T08:30:12.879Z,79.64
2019-03-23T08:31:12.912Z,79.84
2019-03-23T08:32:12.873Z,79.60
2019-03-23T08:33:12.859Z,79.29
2019-03-23T08:34:12.832Z,79.66
2019-03-23T08:35:12.826Z,78.88
2019-03-23T08:36:12.846Z,78.95
2019-03-23T08:37:12.798Z,79.16
2019-03-23T08:38:12.804Z,78.54
2019-03-23T08:39:12.781Z,78.54
2019-03-23T08:40:12.764Z,78.30
2019-03-23T08:41:12.796Z,78.00
2019-03-23T08:42:12.747Z,77.18
2019-03-23T08:43:12.738Z,77.25
2019-03-23T08:44:12.742Z,77.25
2019-03-23T08:45:12.717Z,76.73
2019-03-23T08:46:12.758Z,76.09
2019-03-23T08:47:12.694Z,75.57
2019-03-23T08:48:12.685Z,75.27
2019-03-23T08:49:12.670Z,75.03
2019-03-23T08:50:12.663Z,74.83
2019-03-23T08:51:12.653Z,75.13
2019-03-23T08:52:12.703Z,75.34
2019-03-23T08:53:12.623Z,73.77
2019-03-23T08:54:12.615Z,73.71
2019-03-23T08:55:12.619Z,73.91
2019-03-23T08:56:12.590Z,73.77
2019-03-23T08:57:12.583Z,73.47
2019-03-23T08:58:12.620Z,73.67
2019-03-23T08:59:12.601Z,73.06
2019-03-23T09:00:12.552Z,73.16
2019-03-23T09:01:12.532Z,71.91
2019-03-23T09:02:12.536Z,72.52
2019-03-23T09:03:12.512Z,72.72
2019-03-23T09:04:12.536Z,72.92
2019-03-23T09:05:12.488Z,72.41
2019-03-23T09:06:12.478Z,72.82
2019-03-23T09:07:12.468Z,72.41
2019-03-23T09:08:12.477Z,72.62
2019-03-23T09:09:12.442Z,72.72
2019-03-23T09:10:12.437Z,72.69
2019-03-23T09:11:20.201Z,72.99
2019-03-23T09:12:13.409Z,72.69
2019-03-23T09:13:12.429Z,71.97
2019-03-23T09:14:12.401Z,71.77
2019-03-23T09:15:12.379Z,72.08
2019-03-23T09:16:12.375Z,71.94
2019-03-23T09:17:12.366Z,70.92
2019-03-23T09:18:12.389Z,71.73
2019-03-23T09:19:12.333Z,71.43
2019-03-23T09:20:12.328Z,70.72
2019-03-23T09:21:13.002Z,71.02
2019-03-23T09:22:12.305Z,70.92
2019-03-23T09:23:12.303Z,70.28
2019-03-23T09:24:12.308Z,70.18
2019-03-23T09:25:12.291Z,69.67
2019-03-23T09:26:13.741Z,69.77
2019-03-23T09:27:12.732Z,69.67
2019-03-23T09:28:12.243Z,69.64
2019-03-23T09:29:12.266Z,69.13
2019-03-23T09:30:12.216Z,68.82
2019-03-23T09:31:12.209Z,68.52
2019-03-23T09:32:12.196Z,68.82
2019-03-23T09:33:12.188Z,68.52
2019-03-23T09:34:12.170Z,67.91
2019-03-23T09:35:12.189Z,68.01
2019-03-23T09:36:12.151Z,67.77
2019-03-23T09:37:12.144Z,67.77
2019-03-23T09:38:12.142Z,67.36
2019-03-23T09:39:12.150Z,67.77
2019-03-23T09:40:12.125Z,67.57
2019-03-23T09:41:12.090Z,67.77
2019-03-23T09:42:12.082Z,66.76
2019-03-23T09:43:12.072Z,67.06
2019-03-23T09:44:12.098Z,67.64
2019-03-23T09:45:14.139Z,66.42
2019-03-23T09:46:12.066Z,66.52
2019-03-23T09:47:12.048Z,67.03
2019-03-23T09:48:12.021Z,66.19
2019-03-23T09:49:12.003Z,66.42
2019-03-23T09:50:11.999Z,65.88
2019-03-23T09:51:12.010Z,65.88
2019-03-23T09:52:11.980Z,65.78
2019-03-23T09:53:11.956Z,65.78
2019-03-23T09:54:12.198Z,65.07
2019-03-23T09:55:11.938Z,65.17
2019-03-23T09:56:11.953Z,65.04
2019-03-23T09:57:11.920Z,65.17
2019-03-23T09:58:11.939Z,65.17
2019-03-23T09:59:11.906Z,65.04
2019-03-23T10:00:11.881Z,65.88
2019-03-23T10:01:11.930Z,65.14
2019-03-23T10:02:11.860Z,64.84
2019-03-23T10:03:11.857Z,64.94
2019-03-23T10:04:11.842Z,64.84
2019-03-23T10:05:11.824Z,65.04
2019-03-23T10:06:11.815Z,65.75
2019-03-23T10:07:11.830Z,64.73
2019-03-23T10:08:11.820Z,64.81
2019-03-23T10:09:11.780Z,64.10
2019-03-23T10:10:21.344Z,64.61
2019-03-23T10:11:12.773Z,65.11
2019-03-23T10:12:11.771Z,64.30
2019-03-23T10:13:11.735Z,64.50
2019-03-23T10:14:11.751Z,64.10
2019-03-23T10:15:11.720Z,64.07
2019-03-23T10:16:11.714Z,63.86
2019-03-23T10:17:11.720Z,63.35
2019-03-23T10:18:11.683Z,63.23
2019-03-23T10:19:11.683Z,62.82
2019-03-23T10:20:11.669Z,62.52
2019-03-23T10:21:11.656Z,62.72
2019-03-23T10:22:11.676Z,62.82
2019-03-23T10:23:11.658Z,62.59
2019-03-23T10:24:11.625Z,62.38
2019-03-23T10:25:11.603Z,62.49
2019-03-23T10:26:11.602Z,62.49
2019-03-23T10:27:11.595Z,62.49
2019-03-23T10:28:11.614Z,61.98
2019-03-23T10:29:11.561Z,62.38
2019-03-23T10:30:11.553Z,61.78
2019-03-23T10:31:11.542Z,62.69
2019-03-23T10:32:11.528Z,62.08
2019-03-23T10:33:11.514Z,61.98
2019-03-23T10:34:11.531Z,62.41
2019-03-23T10:35:11.492Z,62.52
2019-03-23T10:36:12.348Z,61.47
2019-03-23T10:37:11.469Z,62.18
2019-03-23T10:38:11.475Z,61.58
2019-03-23T10:39:11.485Z,61.47
2019-03-23T10:40:11.453Z,61.58
2019-03-23T10:41:11.438Z,61.47
2019-03-23T10:44:00.419Z,61.04
2019-03-23T10:44:19.717Z,60.74
2019-03-23T10:45:19.712Z,61.14
2019-03-23T10:47:28.076Z,60.41
2019-03-23T10:48:27.973Z,59.90
2019-03-23T10:49:27.953Z,60.30
2019-03-23T10:50:27.987Z,59.39
2019-03-23T10:51:27.935Z,59.29
2019-03-23T10:52:27.927Z,59.70
2019-03-23T10:53:27.909Z,59.77
2019-03-23T10:54:56.760Z,59.27
2019-03-23T10:55:27.890Z,59.36
2019-03-23T10:56:27.911Z,59.06
2019-03-23T10:57:27.870Z,59.16
2019-03-23T10:58:27.873Z,58.76
2019-03-23T10:59:28.091Z,58.63
2019-03-23T11:00:27.861Z,58.73
2019-03-23T11:01:27.847Z,58.83
2019-03-23T11:02:27.823Z,58.73
2019-03-23T11:03:27.813Z,58.63
2019-03-23T11:04:27.948Z,58.12
2019-03-23T11:05:27.778Z,58.20
2019-03-23T11:06:27.793Z,58.09
2019-03-23T11:07:27.751Z,58.30
2019-03-23T11:08:27.741Z,57.89
2019-03-23T11:09:27.727Z,58.43
2019-03-23T11:10:27.723Z,58.43
2019-03-23T11:11:27.764Z,58.33
2019-03-23T11:12:27.700Z,58.09
2019-03-23T11:13:27.692Z,58.30
2019-03-23T11:14:27.766Z,58.40
2019-03-23T11:15:27.673Z,58.50
2019-03-23T11:16:27.858Z,58.40
2019-03-23T11:17:27.668Z,58.20
2019-03-23T11:18:27.634Z,58.30
2019-03-23T11:19:27.619Z,58.50
2019-03-23T11:20:27.646Z,58.40
2019-03-23T11:21:27.599Z,58.70
2019-03-23T11:22:27.603Z,58.91
2019-03-23T11:23:27.630Z,58.20
2019-03-23T11:24:27.567Z,58.30
2019-03-23T11:25:27.547Z,58.80
2019-03-23T11:26:28.214Z,59.21
2019-03-23T11:27:27.574Z,58.80
2019-03-23T11:28:27.522Z,59.21
2019-03-23T11:29:27.527Z,59.61
2019-03-23T11:30:27.507Z,59.51
2019-03-23T11:31:27.481Z,59.91
2019-03-23T11:32:27.476Z,59.71
2019-03-23T11:33:27.486Z,60.12
2019-03-23T11:34:27.447Z,59.91
2019-03-23T11:35:27.441Z,60.22
2019-03-23T11:36:27.431Z,59.91
2019-03-23T11:37:27.477Z,59.78
2019-03-23T11:38:27.439Z,59.91
2019-03-23T11:39:27.399Z,60.12
2019-03-23T11:40:27.431Z,60.02
2019-03-23T11:41:27.377Z,60.12
2019-03-23T11:42:27.358Z,59.89
2019-03-23T11:43:27.356Z,60.02
2019-03-23T11:44:28.080Z,59.89
2019-03-23T11:45:27.325Z,58.67
2019-03-23T11:46:27.319Z,57.97
2019-03-23T11:47:27.303Z,57.56
2019-03-23T11:48:27.315Z,57.26
2019-03-23T11:49:27.302Z,56.45
2019-03-23T11:50:27.276Z,57.16
2019-03-23T11:51:27.260Z,55.92
2019-03-23T11:52:27.265Z,57.26
2019-03-23T11:53:27.262Z,56.65
2019-03-23T11:54:27.280Z,56.56
2019-03-23T11:55:27.226Z,56.56
2019-03-23T11:56:30.588Z,57.16
2019-03-23T11:57:27.199Z,56.85
2019-03-23T11:58:27.190Z,56.96
2019-03-23T11:59:27.175Z,57.06
2019-03-23T12:00:27.197Z,57.36
2019-03-23T12:01:27.177Z,58.00
2019-03-23T12:02:27.142Z,58.60
2019-03-23T12:03:27.128Z,59.61
2019-03-23T12:04:27.130Z,59.11
2019-03-23T12:05:27.162Z,59.81
2019-03-23T12:06:27.114Z,60.25
2019-03-23T12:07:27.094Z,60.45
2019-03-23T12:08:27.075Z,60.55
2019-03-23T12:09:27.073Z,60.65
2019-03-23T12:10:27.091Z,60.96
2019-03-23T12:11:27.063Z,61.25
2019-03-23T12:12:27.070Z,60.96
2019-03-23T12:13:27.013Z,61.49
2019-03-23T12:14:26.999Z,61.69
2019-03-23T12:15:26.995Z,61.96
2019-03-23T12:16:27.045Z,61.59
2019-03-23T12:17:26.974Z,61.90
2019-03-23T12:18:26.955Z,62.40
2019-03-23T12:19:26.941Z,61.69
2019-03-23T12:20:26.941Z,62.60
2019-03-23T12:21:26.919Z,62.60
2019-03-23T12:22:26.952Z,62.40
2019-03-23T12:23:26.909Z,62.10
2019-03-23T12:24:26.894Z,62.50
2019-03-23T12:25:26.882Z,62.73
2019-03-23T12:26:26.867Z,61.62
2019-03-23T12:27:26.866Z,62.86
2019-03-23T12:28:26.877Z,62.96
2019-03-23T12:29:26.829Z,63.09
2019-03-23T12:30:26.818Z,62.99
2019-03-23T12:31:26.806Z,62.52
2019-03-23T12:32:26.850Z,63.56
2019-03-23T12:33:26.788Z,64.61
2019-03-23T12:34:26.775Z,64.27
2019-03-23T12:35:26.766Z,64.10
2019-03-23T12:36:26.768Z,65.01
2019-03-23T12:37:26.784Z,65.75
2019-03-23T12:38:26.732Z,65.34
2019-03-23T12:39:26.722Z,65.78
2019-03-23T12:40:26.705Z,65.99
2019-03-23T12:41:26.699Z,65.37
2019-03-23T12:42:26.715Z,65.45
2019-03-23T12:43:26.719Z,65.24
2019-03-23T12:44:26.666Z,65.45
2019-03-23T12:45:26.650Z,65.45
2019-03-23T12:46:26.644Z,64.64
2019-03-23T12:47:26.626Z,65.17
2019-03-23T12:48:26.623Z,65.58
2019-03-23T12:49:26.640Z,65.78
2019-03-23T12:50:26.603Z,65.91
2019-03-23T12:51:26.583Z,66.02
2019-03-23T12:52:26.574Z,66.02
2019-03-23T12:53:26.570Z,66.02
2019-03-23T12:54:26.705Z,66.32